createdAt,value
2023-04-26T00:01:31.132Z,5.13
2023-04-26T00:03:57.943Z,5.06
2023-04-26T00:06:24.850Z,4.88
2023-04-26T00:08:51.615Z,4.88
2023-04-26T00:11:18.674Z,4.81
2023-04-26T00:13:45.364Z,4.69
2023-04-26T00:16:14.279Z,4.56
2023-04-26T00:18:41.339Z,4.56
2023-04-26T00:21:07.928Z,4.63
2023-04-26T00:23:36.505Z,4.75
2023-04-26T00:26:03.504Z,4.81
2023-04-26T00:28:30.169Z,4.94
2023-04-26T00:30:57.856Z,5.06
2023-04-26T00:33:25.950Z,5.00
2023-04-26T00:35:52.959Z,5.06
2023-04-26T00:38:19.739Z,4.94
2023-04-26T00:40:46.461Z,5.06
2023-04-26T00:43:13.130Z,5.06
2023-04-26T00:45:39.950Z,5.19
2023-04-26T00:48:06.703Z,5.13
2023-04-26T00:50:33.642Z,5.13
2023-04-26T00:53:02.857Z,4.88
2023-04-26T00:55:29.726Z,4.75
2023-04-26T00:57:56.407Z,4.63
2023-04-26T01:00:23.074Z,4.75
2023-04-26T01:02:49.944Z,4.38
2023-04-26T01:05:17.221Z,4.06
2023-04-26T01:07:44.485Z,3.94
2023-04-26T01:10:11.465Z,3.94
2023-04-26T01:12:38.609Z,3.88
2023-04-26T01:15:05.981Z,3.81
2023-04-26T01:17:32.787Z,3.75
2023-04-26T01:19:59.488Z,3.81
2023-04-26T01:22:26.367Z,3.94
2023-04-26T01:24:56.337Z,3.94
2023-04-26T01:27:22.928Z,3.81
2023-04-26T01:29:49.533Z,3.50
2023-04-26T01:32:16.268Z,3.31
2023-04-26T01:34:42.885Z,3.38
2023-04-26T01:37:09.444Z,3.44
2023-04-26T01:39:36.794Z,3.31
2023-04-26T01:42:04.805Z,3.19
2023-04-26T01:44:31.884Z,3.25
2023-04-26T01:46:58.548Z,3.31
2023-04-26T01:49:25.176Z,3.44
2023-04-26T01:51:52.156Z,3.69
2023-04-26T01:54:18.892Z,3.75
2023-04-26T01:56:45.464Z,3.63
2023-04-26T01:59:12.322Z,3.63
2023-04-26T02:01:42.278Z,3.63
2023-04-26T02:04:09.167Z,3.63
2023-04-26T02:06:36.282Z,3.75
2023-04-26T02:09:02.858Z,3.75
2023-04-26T02:11:29.528Z,3.75
2023-04-26T02:13:56.347Z,3.56
2023-04-26T02:16:23.029Z,3.50
2023-04-26T02:18:50.084Z,3.50
2023-04-26T02:21:20.638Z,3.50
2023-04-26T02:23:47.236Z,3.31
2023-04-26T02:26:14.799Z,3.56
2023-04-26T02:28:42.012Z,3.44
2023-04-26T02:31:09.067Z,3.19
2023-04-26T02:33:36.055Z,2.75
2023-04-26T02:36:05.393Z,2.56
2023-04-26T02:38:36.369Z,2.56
2023-04-26T02:41:04.116Z,2.31
2023-04-26T02:43:30.992Z,2.63
2023-04-26T02:46:00.385Z,3.06
2023-04-26T02:48:27.028Z,2.94
2023-04-26T02:50:53.720Z,3.06
2023-04-26T02:53:20.893Z,2.69
2023-04-26T02:55:47.556Z,2.63
2023-04-26T02:58:14.192Z,2.38
2023-04-26T03:00:46.306Z,2.38
2023-04-26T03:03:13.499Z,2.50
2023-04-26T03:05:41.507Z,2.69
2023-04-26T03:08:08.134Z,2.94
2023-04-26T03:10:34.731Z,3.00
2023-04-26T03:13:01.477Z,3.06
2023-04-26T03:15:28.109Z,2.81
2023-04-26T03:17:54.723Z,2.63
2023-04-26T03:20:21.327Z,2.50
2023-04-26T03:22:47.882Z,2.56
2023-04-26T03:25:16.179Z,2.63
2023-04-26T03:27:42.800Z,2.63
2023-04-26T03:30:09.856Z,2.69
2023-04-26T03:32:36.581Z,2.50
2023-04-26T03:35:03.304Z,2.25
2023-04-26T03:37:29.897Z,2.31
2023-04-26T03:39:56.858Z,2.44
2023-04-26T03:42:23.461Z,2.69
2023-04-26T03:44:50.072Z,2.50
2023-04-26T03:47:16.692Z,2.50
2023-04-26T03:49:43.325Z,2.50
2023-04-26T03:52:09.914Z,2.19
2023-04-26T03:54:36.577Z,1.88
2023-04-26T03:57:03.204Z,1.88
2023-04-26T03:59:30.041Z,2.19
2023-04-26T04:01:56.639Z,2.25
2023-04-26T04:04:23.515Z,2.44
2023-04-26T04:06:50.213Z,2.56
2023-04-26T04:09:16.824Z,2.50
2023-04-26T04:11:43.861Z,2.50
2023-04-26T04:14:11.387Z,2.44
2023-04-26T04:16:38.472Z,2.38
2023-04-26T04:19:05.195Z,2.25
2023-04-26T04:21:32.063Z,2.19
2023-04-26T04:23:58.624Z,2.13
2023-04-26T04:26:25.655Z,2.06
2023-04-26T04:28:53.634Z,2.06
2023-04-26T04:31:20.543Z,2.19
2023-04-26T04:33:47.493Z,2.31
2023-04-26T04:36:16.836Z,2.44
2023-04-26T04:38:43.673Z,2.25
2023-04-26T04:41:10.461Z,2.13
2023-04-26T04:43:37.272Z,2.06
2023-04-26T04:46:03.948Z,2.13
2023-04-26T04:48:30.539Z,2.19
2023-04-26T04:50:58.338Z,2.06
2023-04-26T04:53:24.937Z,2.06
2023-04-26T04:55:51.511Z,2.13
2023-04-26T04:58:18.161Z,2.06
2023-04-26T05:00:45.674Z,2.13
2023-04-26T05:03:15.098Z,2.25
2023-04-26T05:05:41.779Z,2.25
2023-04-26T05:08:08.367Z,2.25
2023-04-26T05:10:35.914Z,2.38
2023-04-26T05:13:02.523Z,2.31
2023-04-26T05:15:29.758Z,2.38
2023-04-26T05:17:56.420Z,2.31
2023-04-26T05:20:23.205Z,2.56
2023-04-26T05:22:49.846Z,2.63
2023-04-26T05:25:17.242Z,2.69
2023-04-26T05:27:45.806Z,2.88
2023-04-26T05:30:12.888Z,2.81
2023-04-26T05:32:39.538Z,2.88
2023-04-26T05:35:06.363Z,3.00
2023-04-26T05:37:33.004Z,2.81
2023-04-26T05:39:59.681Z,2.94
2023-04-26T05:42:26.328Z,3.00
2023-04-26T05:44:58.452Z,3.13
2023-04-26T05:47:25.799Z,3.19
2023-04-26T05:49:52.399Z,3.25
2023-04-26T05:52:19.040Z,3.44
2023-04-26T05:54:45.633Z,3.50
2023-04-26T05:57:12.621Z,3.75
2023-04-26T05:59:40.241Z,4.00
2023-04-26T06:02:07.251Z,4.19
2023-04-26T06:04:34.034Z,4.44
2023-04-26T06:07:00.920Z,4.75
2023-04-26T06:09:27.649Z,5.31
2023-04-26T06:11:54.288Z,6.00
2023-04-26T06:14:30.108Z,6.00
2023-04-26T06:16:57.717Z,5.81
2023-04-26T06:19:24.347Z,6.69
2023-04-26T06:21:52.182Z,6.56
2023-04-26T06:24:19.285Z,6.31
2023-04-26T06:26:46.085Z,6.06
2023-04-26T06:29:12.678Z,5.94
2023-04-26T06:31:39.278Z,5.81
2023-04-26T06:34:06.477Z,6.00
2023-04-26T06:36:33.319Z,6.44
2023-04-26T06:38:59.960Z,6.63
2023-04-26T06:41:26.979Z,6.75
2023-04-26T06:43:53.948Z,7.00
2023-04-26T06:46:20.782Z,7.06
2023-04-26T06:48:47.367Z,7.00
2023-04-26T06:51:14.045Z,7.00
2023-04-26T06:53:41.505Z,7.06
2023-04-26T06:56:08.128Z,6.94
2023-04-26T06:58:34.693Z,7.19
2023-04-26T07:01:01.347Z,7.38
2023-04-26T07:03:28.320Z,7.44
2023-04-26T07:05:56.553Z,7.56
2023-04-26T07:08:23.381Z,7.50
2023-04-26T07:10:50.025Z,7.81
2023-04-26T07:13:17.030Z,7.94
2023-04-26T07:15:43.730Z,7.88
2023-04-26T07:18:10.389Z,7.81
2023-04-26T07:20:37.040Z,7.81
2023-04-26T07:23:03.869Z,7.88
2023-04-26T07:25:30.625Z,7.88
2023-04-26T07:27:57.401Z,8.19
2023-04-26T07:30:24.082Z,8.50
2023-04-26T07:32:50.973Z,8.63
2023-04-26T07:35:17.965Z,8.69
2023-04-26T07:37:45.058Z,8.75
2023-04-26T07:40:13.355Z,8.69
2023-04-26T07:42:40.074Z,8.75
2023-04-26T07:45:07.138Z,8.69
2023-04-26T07:47:33.841Z,8.63
2023-04-26T07:50:00.480Z,8.38
2023-04-26T07:52:27.057Z,8.44
2023-04-26T07:54:53.653Z,8.38
2023-04-26T07:57:20.409Z,8.31
2023-04-26T07:59:46.983Z,8.44
2023-04-26T08:02:13.663Z,8.31
2023-04-26T08:04:47.592Z,8.44
2023-04-26T08:07:14.257Z,8.56
2023-04-26T08:09:40.875Z,8.88
2023-04-26T08:12:08.118Z,9.06
2023-04-26T08:14:35.277Z,9.06
2023-04-26T08:17:01.935Z,9.31
2023-04-26T08:19:31.611Z,9.38
2023-04-26T08:21:58.840Z,9.63
2023-04-26T08:24:25.567Z,9.94
2023-04-26T08:26:52.146Z,9.88
2023-04-26T08:29:19.176Z,9.44
2023-04-26T08:31:46.044Z,9.50
2023-04-26T08:34:13.573Z,9.69
2023-04-26T08:36:41.777Z,9.56
2023-04-26T08:39:09.146Z,9.44
2023-04-26T08:41:38.030Z,9.31
2023-04-26T08:44:08.612Z,9.25
2023-04-26T08:47:03.918Z,9.13
2023-04-26T08:49:47.749Z,8.81
2023-04-26T08:52:17.144Z,8.75
2023-04-26T08:54:46.285Z,8.75
2023-04-26T08:57:13.334Z,8.81
2023-04-26T08:59:40.102Z,8.75
2023-04-26T09:02:08.177Z,8.75
2023-04-26T09:04:36.213Z,8.69
2023-04-26T09:07:04.662Z,8.44
2023-04-26T09:09:38.997Z,8.44
2023-04-26T09:12:05.870Z,8.38
2023-04-26T09:14:32.564Z,8.56
2023-04-26T09:16:59.610Z,8.44
2023-04-26T09:19:42.641Z,8.63
2023-04-26T09:22:09.479Z,8.63
2023-04-26T09:24:52.274Z,8.69
2023-04-26T09:27:20.116Z,8.69
2023-04-26T09:30:07.720Z,8.75
2023-04-26T09:32:54.219Z,8.75
2023-04-26T09:35:30.730Z,8.88
2023-04-26T09:38:11.071Z,8.94
2023-04-26T09:40:42.120Z,9.06
2023-04-26T09:43:14.385Z,9.13
2023-04-26T09:45:50.024Z,9.13
2023-04-26T09:48:25.841Z,9.19
2023-04-26T09:50:54.570Z,9.44
2023-04-26T09:53:37.220Z,9.50
2023-04-26T09:56:13.521Z,9.44
2023-04-26T09:59:02.165Z,9.38
2023-04-26T10:01:30.432Z,9.19
2023-04-26T10:03:58.045Z,9.50
2023-04-26T10:06:25.399Z,9.50
2023-04-26T10:08:52.175Z,9.69
2023-04-26T10:11:21.599Z,10.00
2023-04-26T10:13:51.130Z,10.06
2023-04-26T10:16:18.655Z,10.25
2023-04-26T10:18:45.229Z,10.25
2023-04-26T10:21:36.898Z,10.19
2023-04-26T10:24:04.537Z,10.31
2023-04-26T10:26:52.822Z,10.06
2023-04-26T10:29:21.264Z,10.00
2023-04-26T10:32:06.428Z,10.00
2023-04-26T10:34:34.694Z,9.94
2023-04-26T10:37:11.063Z,10.13
2023-04-26T10:39:39.534Z,9.94
2023-04-26T10:42:25.563Z,9.94
2023-04-26T10:44:55.403Z,10.06
2023-04-26T10:47:27.030Z,10.13
2023-04-26T10:50:05.707Z,10.06
2023-04-26T10:52:33.131Z,10.06
2023-04-26T10:55:00.350Z,9.88
2023-04-26T10:57:50.582Z,9.94
2023-04-26T11:00:18.642Z,9.94
2023-04-26T11:03:05.776Z,10.06
2023-04-26T11:05:35.854Z,10.19
2023-04-26T11:08:14.996Z,10.25
2023-04-26T11:10:42.476Z,10.25
2023-04-26T11:13:09.257Z,10.31
2023-04-26T11:15:36.452Z,10.31
2023-04-26T11:18:04.902Z,10.38
2023-04-26T11:20:33.234Z,10.56
2023-04-26T11:23:00.587Z,10.38
2023-04-26T11:25:29.057Z,10.31
2023-04-26T11:28:03.467Z,10.69
2023-04-26T11:30:31.797Z,10.25
2023-04-26T11:33:04.994Z,10.19
2023-04-26T11:35:40.483Z,10.13
2023-04-26T11:38:07.562Z,9.75
2023-04-26T11:40:36.584Z,10.25
2023-04-26T11:43:07.299Z,10.50
2023-04-26T11:45:35.997Z,10.75
2023-04-26T11:48:05.825Z,10.88
2023-04-26T11:50:35.227Z,11.50
2023-04-26T11:53:05.036Z,12.25
2023-04-26T11:55:34.847Z,13.50
2023-04-26T11:58:09.416Z,14.38
2023-04-26T12:00:36.057Z,13.13
2023-04-26T12:03:11.078Z,12.88
2023-04-26T12:05:38.535Z,14.13
2023-04-26T12:08:05.392Z,14.19
2023-04-26T12:10:37.687Z,12.25
2023-04-26T12:13:04.338Z,11.88
2023-04-26T12:15:33.451Z,12.25
2023-04-26T12:18:12.284Z,12.06
2023-04-26T12:20:40.902Z,11.56
2023-04-26T12:23:10.082Z,10.75
2023-04-26T12:25:38.493Z,11.06
2023-04-26T12:28:11.961Z,11.44
2023-04-26T12:30:40.048Z,11.38
2023-04-26T12:33:16.427Z,11.50
2023-04-26T12:35:44.366Z,11.06
2023-04-26T12:38:12.274Z,11.50
2023-04-26T12:40:39.738Z,11.06
2023-04-26T12:43:07.098Z,10.81
2023-04-26T12:45:33.749Z,11.06
2023-04-26T12:48:00.434Z,10.81
2023-04-26T12:50:27.630Z,10.56
2023-04-26T12:52:54.467Z,11.00
2023-04-26T12:55:21.456Z,10.94
2023-04-26T12:57:48.212Z,10.94
2023-04-26T13:00:19.743Z,10.75
2023-04-26T13:02:46.683Z,10.44
2023-04-26T13:05:14.218Z,10.81
2023-04-26T13:07:43.622Z,11.44
2023-04-26T13:10:12.951Z,11.50
2023-04-26T13:12:40.310Z,11.56
2023-04-26T13:15:07.998Z,11.63
2023-04-26T13:17:37.262Z,11.69
2023-04-26T13:20:07.925Z,11.63
2023-04-26T13:22:34.972Z,11.63
2023-04-26T13:25:01.673Z,11.69
2023-04-26T13:27:31.084Z,11.75
2023-04-26T13:29:58.363Z,11.75
2023-04-26T13:32:25.116Z,11.44
2023-04-26T13:34:51.876Z,11.38
2023-04-26T13:37:21.213Z,11.13
2023-04-26T13:39:48.176Z,11.06
2023-04-26T13:42:16.462Z,11.38
2023-04-26T13:44:43.503Z,11.44
2023-04-26T13:47:10.320Z,11.38
2023-04-26T13:49:38.693Z,11.38
2023-04-26T13:52:05.554Z,11.38
2023-04-26T13:54:32.206Z,11.56
2023-04-26T13:56:59.314Z,11.50
2023-04-26T13:59:26.707Z,11.19
2023-04-26T14:01:55.761Z,11.13
2023-04-26T14:04:24.549Z,11.44
2023-04-26T14:06:52.575Z,11.38
2023-04-26T14:09:19.151Z,11.69
2023-04-26T14:11:49.317Z,12.06
2023-04-26T14:14:20.759Z,12.06
2023-04-26T14:16:47.533Z,12.25
2023-04-26T14:19:15.529Z,12.56
2023-04-26T14:21:42.296Z,12.56
2023-04-26T14:24:09.173Z,12.25
2023-04-26T14:26:35.926Z,12.31
2023-04-26T14:29:02.552Z,12.19
2023-04-26T14:31:30.386Z,12.00
2023-04-26T14:33:57.104Z,12.44
2023-04-26T14:36:23.809Z,12.44
2023-04-26T14:38:50.807Z,12.69
2023-04-26T14:41:18.332Z,12.56
2023-04-26T14:43:46.630Z,12.63
2023-04-26T14:46:13.741Z,12.44
2023-04-26T14:48:40.483Z,12.25
2023-04-26T14:51:07.119Z,12.31
2023-04-26T14:53:33.716Z,12.44
2023-04-26T14:56:01.274Z,12.25
2023-04-26T14:58:27.877Z,12.19
2023-04-26T15:00:54.528Z,12.06
2023-04-26T15:03:21.349Z,12.38
2023-04-26T15:05:48.083Z,12.25
2023-04-26T15:08:14.859Z,11.88
2023-04-26T15:10:41.618Z,11.94
2023-04-26T15:13:08.214Z,11.88
2023-04-26T15:15:34.850Z,11.94
2023-04-26T15:18:01.947Z,11.69
2023-04-26T15:20:28.651Z,11.81
2023-04-26T15:22:55.317Z,11.75
2023-04-26T15:25:22.087Z,11.94
2023-04-26T15:27:50.323Z,11.63
2023-04-26T15:30:17.165Z,11.75
2023-04-26T15:32:47.961Z,11.75
2023-04-26T15:35:15.689Z,11.69
2023-04-26T15:37:44.003Z,11.50
2023-04-26T15:40:11.055Z,11.75
2023-04-26T15:42:37.710Z,11.88
2023-04-26T15:45:04.708Z,11.63
2023-04-26T15:47:31.387Z,11.50
2023-04-26T15:50:03.665Z,11.50
2023-04-26T15:52:35.278Z,11.56
2023-04-26T15:55:07.029Z,11.19
2023-04-26T15:57:34.631Z,11.50
2023-04-26T16:00:02.047Z,11.56
2023-04-26T16:02:28.902Z,11.63
2023-04-26T16:04:56.283Z,11.44
2023-04-26T16:07:23.085Z,11.63
2023-04-26T16:09:49.680Z,11.75
2023-04-26T16:12:16.345Z,11.88
2023-04-26T16:14:42.928Z,11.69
2023-04-26T16:17:09.569Z,12.06
2023-04-26T16:19:37.253Z,11.69
2023-04-26T16:22:03.910Z,11.44
2023-04-26T16:24:32.145Z,11.63
2023-04-26T16:26:58.952Z,11.63
2023-04-26T16:29:25.636Z,11.13
2023-04-26T16:31:52.975Z,11.38
2023-04-26T16:34:20.024Z,11.31
2023-04-26T16:36:48.128Z,11.38
2023-04-26T16:39:16.239Z,11.13
2023-04-26T16:41:43.355Z,11.25
2023-04-26T16:44:10.155Z,11.25
2023-04-26T16:46:37.492Z,11.25
2023-04-26T16:49:09.372Z,11.38
2023-04-26T16:51:37.733Z,11.13
2023-04-26T16:54:04.504Z,11.06
2023-04-26T16:56:32.089Z,10.75
2023-04-26T16:58:59.188Z,11.13
2023-04-26T17:01:25.968Z,11.25
2023-04-26T17:03:52.862Z,11.19
2023-04-26T17:06:19.839Z,11.13
2023-04-26T17:08:46.477Z,11.06
2023-04-26T17:11:16.768Z,10.81
2023-04-26T17:13:43.986Z,11.06
2023-04-26T17:16:11.118Z,11.00
2023-04-26T17:18:38.195Z,10.94
2023-04-26T17:21:06.029Z,10.63
2023-04-26T17:23:33.789Z,10.88
2023-04-26T17:26:01.375Z,10.75
2023-04-26T17:28:28.410Z,10.94
2023-04-26T17:30:55.360Z,10.81
2023-04-26T17:33:22.122Z,10.69
2023-04-26T17:35:49.367Z,10.88
2023-04-26T17:38:16.396Z,10.75
2023-04-26T17:40:46.148Z,10.44
2023-04-26T17:43:13.057Z,10.44
2023-04-26T17:45:39.757Z,10.44
2023-04-26T17:48:10.944Z,10.19
2023-04-26T17:50:37.649Z,10.50
2023-04-26T17:53:06.067Z,10.38
2023-04-26T17:55:33.009Z,10.38
2023-04-26T17:57:59.798Z,10.31
2023-04-26T18:00:26.946Z,10.38
2023-04-26T18:02:53.912Z,10.31
2023-04-26T18:05:20.841Z,10.25
2023-04-26T18:07:47.460Z,10.31
2023-04-26T18:10:14.291Z,10.00
2023-04-26T18:12:40.889Z,10.19
2023-04-26T18:15:07.953Z,10.00
2023-04-26T18:17:34.602Z,10.06
2023-04-26T18:20:01.307Z,9.94
2023-04-26T18:22:27.922Z,9.75
2023-04-26T18:24:54.599Z,9.88
2023-04-26T18:27:21.196Z,9.94
2023-04-26T18:29:49.107Z,9.88
2023-04-26T18:32:15.936Z,9.94
2023-04-26T18:34:44.007Z,10.00
2023-04-26T18:37:10.675Z,9.81
2023-04-26T18:39:37.233Z,9.75
2023-04-26T18:42:04.076Z,9.56
2023-04-26T18:44:30.747Z,9.69
2023-04-26T18:46:57.413Z,9.56
2023-04-26T18:49:26.235Z,9.63
2023-04-26T18:51:53.147Z,9.50
2023-04-26T18:54:19.758Z,9.56
2023-04-26T18:56:46.385Z,9.56
2023-04-26T18:59:13.049Z,9.38
2023-04-26T19:01:39.672Z,9.31
2023-04-26T19:04:06.463Z,9.38
2023-04-26T19:06:33.550Z,9.31
2023-04-26T19:09:01.003Z,9.50
2023-04-26T19:11:27.641Z,9.38
2023-04-26T19:13:54.241Z,9.38
2023-04-26T19:16:20.895Z,9.25
2023-04-26T19:18:49.036Z,9.25
2023-04-26T19:21:16.667Z,9.31
2023-04-26T19:23:45.375Z,9.38
2023-04-26T19:26:13.321Z,9.25
2023-04-26T19:28:40.777Z,9.13
2023-04-26T19:31:07.528Z,8.75
2023-04-26T19:33:34.216Z,9.06
2023-04-26T19:36:00.958Z,8.94
2023-04-26T19:38:27.666Z,8.75
2023-04-26T19:40:54.310Z,8.75
2023-04-26T19:43:21.065Z,8.75
2023-04-26T19:45:48.205Z,8.81
2023-04-26T19:48:15.403Z,8.81
2023-04-26T19:50:46.708Z,8.81
2023-04-26T19:53:14.850Z,8.69
2023-04-26T19:55:42.543Z,8.38
2023-04-26T19:58:10.614Z,8.50
2023-04-26T20:00:38.890Z,8.44
2023-04-26T20:03:06.078Z,8.63
2023-04-26T20:05:33.523Z,8.75
2023-04-26T20:08:00.549Z,8.75
2023-04-26T20:10:31.013Z,8.56
2023-04-26T20:12:58.732Z,8.56
2023-04-26T20:15:25.339Z,8.56
2023-04-26T20:17:52.533Z,8.44
2023-04-26T20:20:19.220Z,8.38
2023-04-26T20:22:45.907Z,8.31
2023-04-26T20:25:12.985Z,8.44
2023-04-26T20:27:39.547Z,8.44
2023-04-26T20:30:07.190Z,8.38
2023-04-26T20:32:33.813Z,8.13
2023-04-26T20:35:00.583Z,8.00
2023-04-26T20:37:27.171Z,7.81
2023-04-26T20:39:54.052Z,7.69
2023-04-26T20:42:20.655Z,7.81
2023-04-26T20:44:47.287Z,8.00
2023-04-26T20:47:13.921Z,7.63
2023-04-26T20:49:40.539Z,7.44
2023-04-26T20:52:07.294Z,7.50
2023-04-26T20:54:33.897Z,7.38
2023-04-26T20:57:01.601Z,7.44
2023-04-26T20:59:28.261Z,7.63
2023-04-26T21:01:54.909Z,7.75
2023-04-26T21:04:22.060Z,7.81
2023-04-26T21:06:49.043Z,7.75
2023-04-26T21:09:16.221Z,7.69
2023-04-26T21:11:42.951Z,7.63
2023-04-26T21:14:09.671Z,7.44
2023-04-26T21:16:36.281Z,7.56
2023-04-26T21:19:03.534Z,7.50
2023-04-26T21:21:30.723Z,7.38
2023-04-26T21:23:57.329Z,7.50
2023-04-26T21:26:23.897Z,7.25
2023-04-26T21:28:50.547Z,7.44
2023-04-26T21:31:17.313Z,7.38
2023-04-26T21:33:43.968Z,6.88
2023-04-26T21:36:10.633Z,6.63
2023-04-26T21:38:37.252Z,6.56
2023-04-26T21:41:03.915Z,6.56
2023-04-26T21:43:30.622Z,6.00
2023-04-26T21:45:58.465Z,6.19
2023-04-26T21:48:26.406Z,6.13
2023-04-26T21:50:53.635Z,5.88
2023-04-26T21:53:20.501Z,6.06
2023-04-26T21:55:52.523Z,6.00
2023-04-26T21:58:20.690Z,6.38
2023-04-26T22:00:47.390Z,6.38
2023-04-26T22:03:14.582Z,6.31
2023-04-26T22:05:41.493Z,6.06
2023-04-26T22:08:08.152Z,6.00
2023-04-26T22:10:35.115Z,6.00
2023-04-26T22:13:01.875Z,6.31
2023-04-26T22:15:28.897Z,6.19
2023-04-26T22:17:55.520Z,5.88
2023-04-26T22:20:22.540Z,5.50
2023-04-26T22:22:49.257Z,5.50
2023-04-26T22:25:15.879Z,5.63
2023-04-26T22:27:42.472Z,5.44
2023-04-26T22:30:22.890Z,5.69
2023-04-26T22:32:54.092Z,5.81
2023-04-26T22:35:22.217Z,5.63
2023-04-26T22:37:49.060Z,5.63
2023-04-26T22:40:16.730Z,5.69
2023-04-26T22:42:44.187Z,5.63
2023-04-26T22:45:12.329Z,5.56
2023-04-26T22:47:39.550Z,5.06
2023-04-26T22:50:07.543Z,4.94
2023-04-26T22:52:35.697Z,5.06
2023-04-26T22:55:02.708Z,4.63
2023-04-26T22:57:29.814Z,4.69
2023-04-26T22:59:56.553Z,5.13
2023-04-26T23:02:23.446Z,5.13
2023-04-26T23:04:50.261Z,5.25
2023-04-26T23:07:17.051Z,5.31
2023-04-26T23:09:43.762Z,5.25
2023-04-26T23:12:10.620Z,5.06
2023-04-26T23:14:37.732Z,5.13
2023-04-26T23:17:05.642Z,5.13
2023-04-26T23:19:32.964Z,5.19
2023-04-26T23:21:59.818Z,5.31
2023-04-26T23:24:26.868Z,5.00
2023-04-26T23:26:53.627Z,5.06
2023-04-26T23:29:20.296Z,4.75
2023-04-26T23:31:47.019Z,4.88
2023-04-26T23:34:13.697Z,4.63
2023-04-26T23:36:40.323Z,4.31
2023-04-26T23:39:07.229Z,4.69
2023-04-26T23:41:33.804Z,4.69
2023-04-26T23:44:00.385Z,4.88
2023-04-26T23:46:27.048Z,4.75
2023-04-26T23:48:53.704Z,4.88
2023-04-26T23:51:20.344Z,4.38
2023-04-26T23:53:46.976Z,4.06
2023-04-26T23:56:13.613Z,3.94
2023-04-26T23:58:40.233Z,4.13
